Página principal
METAR-TAF:

METAR-TAF

Aeroportos :

Plataforma petrolífera

Ula, Noruega

latitude: 59-06-39N, longitude: 2-50-45E, altura: 0 m

Observação actual do tempo

O boletim foi feito há 40 minutos, às 06:20 UTC
Vento 11 kt de sudoeste
Temperatura 7°C
Humidade 87%
Pressão 1011 hPa
Visibilidade 10 km ou mais

METAR: ENLA 280620Z AUTO 23011KT 9999NDV NCD 07/05 Q1011 W///S4

Hora: 08:00 (07:00 UTC)


TAF: em falta

Observações e previsões do tempo de mais de 4000 aeroportos (mensagens METAR e TAF).

As estações disponíveis são os pontos amarelos e vermelhos sobre o mapa.

Mova o rato sobre o mapa para ver o nome da estação.

Depois clique no ponto para visualizar as observações e previsões meteorológicas.

Para alterar o mapa : clique nos botões verdes com uma cruz preta para aumentar o zoom; no botão verde com uma pitada de zoom; ou nas setas verdes para mapas adjacentes.


METAR-TAF: